createdAt,value
2023-01-02T00:00:09.245Z,50.834846
2023-01-02T00:01:09.179Z,50.834827
2023-01-02T00:02:09.180Z,50.834843
2023-01-02T00:03:09.366Z,50.834854
2023-01-02T00:04:09.158Z,50.834854
2023-01-02T00:05:09.166Z,50.834854
2023-01-02T00:06:09.141Z,50.834824
2023-01-02T00:07:09.150Z,50.834816
2023-01-02T00:08:09.127Z,50.834824
2023-01-02T00:09:09.146Z,50.834812
2023-01-02T00:10:09.122Z,50.834812
2023-01-02T00:11:09.111Z,50.834789
2023-01-02T00:12:09.081Z,50.834805
2023-01-02T00:13:09.093Z,50.834797
2023-01-02T00:14:09.104Z,50.834820
2023-01-02T00:15:09.092Z,50.834805
2023-01-02T00:16:09.111Z,50.834801
2023-01-02T00:17:09.077Z,50.834827
2023-01-02T00:18:09.075Z,50.834827
2023-01-02T00:19:09.062Z,50.834820
2023-01-02T00:20:09.049Z,50.834831
2023-01-02T00:21:09.843Z,50.834812
2023-01-02T00:22:09.029Z,50.834812
2023-01-02T00:23:09.031Z,50.834801
2023-01-02T00:24:09.028Z,50.834827
2023-01-02T00:25:08.998Z,50.834820
2023-01-02T00:26:09.003Z,50.834808
2023-01-02T00:27:08.990Z,50.834793
2023-01-02T00:28:08.969Z,50.834797
2023-01-02T00:29:08.989Z,50.834816
2023-01-02T00:30:08.953Z,50.834801
2023-01-02T00:31:09.018Z,50.834793
2023-01-02T00:32:08.953Z,50.834816
2023-01-02T00:33:08.967Z,50.834801
2023-01-02T00:34:08.924Z,50.834820
2023-01-02T00:35:08.908Z,50.834808
2023-01-02T00:36:08.922Z,50.834827
2023-01-02T00:37:08.894Z,50.834816
2023-01-02T00:38:08.893Z,50.834805
2023-01-02T00:39:08.899Z,50.834816
2023-01-02T00:40:08.937Z,50.834808
2023-01-02T00:41:08.999Z,50.834801
2023-01-02T00:42:08.871Z,50.834797
2023-01-02T00:43:08.874Z,50.834797
2023-01-02T00:44:08.855Z,50.834793
2023-01-02T00:45:08.849Z,50.834805
2023-01-02T00:46:11.881Z,50.834797
2023-01-02T00:47:09.860Z,50.834785
2023-01-02T00:48:09.171Z,50.834778
2023-01-02T00:49:08.811Z,50.834782
2023-01-02T00:50:08.822Z,50.834785
2023-01-02T00:51:08.808Z,50.834782
2023-01-02T00:52:08.805Z,50.834789
2023-01-02T00:53:08.802Z,50.834816
2023-01-02T00:54:08.803Z,50.834801
2023-01-02T00:55:08.767Z,50.834789
2023-01-02T00:56:08.769Z,50.834812
2023-01-02T00:57:08.746Z,50.834805
2023-01-02T00:58:08.770Z,50.834797
2023-01-02T00:59:08.735Z,50.834808
2023-01-02T01:00:08.782Z,50.834797
2023-01-02T01:01:08.740Z,50.834801
2023-01-02T01:02:08.791Z,50.834805
2023-01-02T01:03:08.834Z,50.834793
2023-01-02T01:04:08.721Z,50.834785
2023-01-02T01:05:08.692Z,50.834785
2023-01-02T01:06:08.678Z,50.834789
2023-01-02T01:07:08.705Z,50.834778
2023-01-02T01:08:08.665Z,50.834785
2023-01-02T01:09:08.678Z,50.834785
2023-01-02T01:10:08.666Z,50.834763
2023-01-02T01:11:08.658Z,50.834770
2023-01-02T01:12:08.686Z,50.834782
2023-01-02T01:13:08.655Z,50.834766
2023-01-02T01:14:08.636Z,50.834770
2023-01-02T01:15:08.636Z,50.834789
2023-01-02T01:16:08.682Z,50.834782
2023-01-02T01:17:08.606Z,50.834778
2023-01-02T01:18:08.618Z,50.834801
2023-01-02T01:19:08.580Z,50.834801
2023-01-02T01:20:08.566Z,50.834805
2023-01-02T01:21:08.572Z,50.834805
2023-01-02T01:22:08.575Z,50.834820
2023-01-02T01:23:08.583Z,50.834805
2023-01-02T01:24:08.548Z,50.834827
2023-01-02T01:25:08.565Z,50.834789
2023-01-02T01:26:08.528Z,50.834793
2023-01-02T01:27:08.540Z,50.834801
2023-01-02T01:28:08.560Z,50.834785
2023-01-02T01:29:08.527Z,50.834797
2023-01-02T01:30:08.512Z,50.834805
2023-01-02T01:31:08.548Z,50.834812
2023-01-02T01:32:08.485Z,50.834785
2023-01-02T01:33:08.504Z,50.834797
2023-01-02T01:34:08.459Z,50.834793
2023-01-02T01:35:08.475Z,50.834782
2023-01-02T01:36:08.540Z,50.834789
2023-01-02T01:37:08.447Z,50.834732
2023-01-02T01:38:08.451Z,50.834721
2023-01-02T01:39:08.424Z,50.834728
2023-01-02T01:40:08.471Z,50.834751
2023-01-02T01:41:08.426Z,50.834759
2023-01-02T01:42:08.397Z,50.834698
2023-01-02T01:43:08.438Z,50.834736
2023-01-02T01:44:08.420Z,50.834724
2023-01-02T01:45:08.398Z,50.834770
2023-01-02T01:46:08.400Z,50.834736
2023-01-02T01:47:08.400Z,50.834774
2023-01-02T01:48:08.360Z,50.834805
2023-01-02T01:49:08.363Z,50.834789
2023-01-02T01:50:08.419Z,50.834785
2023-01-02T01:51:08.341Z,50.834785
2023-01-02T01:52:08.409Z,50.834774
2023-01-02T01:53:08.353Z,50.834770
2023-01-02T01:54:08.309Z,50.834770
2023-01-02T01:55:08.331Z,50.834763
2023-01-02T01:56:08.314Z,50.834770
2023-01-02T01:57:08.297Z,50.834770
2023-01-02T01:58:08.295Z,50.834759
2023-01-02T01:59:08.276Z,50.834743
2023-01-02T02:00:08.256Z,50.834755
2023-01-02T02:01:09.295Z,50.834759
2023-01-02T02:02:08.483Z,50.834763
2023-01-02T02:03:08.338Z,50.834766
2023-01-02T02:04:08.236Z,50.834782
2023-01-02T02:05:08.215Z,50.834805
2023-01-02T02:06:08.254Z,50.834785
2023-01-02T02:07:08.202Z,50.834763
2023-01-02T02:08:08.233Z,50.834801
2023-01-02T02:09:08.200Z,50.834797
2023-01-02T02:10:08.202Z,50.834797
2023-01-02T02:11:08.187Z,50.834782
2023-01-02T02:12:08.160Z,50.834774
2023-01-02T02:13:08.213Z,50.834782
2023-01-02T02:14:08.151Z,50.834797
2023-01-02T02:15:40.095Z,50.834778
2023-01-02T02:16:08.253Z,50.834785
2023-01-02T02:17:08.172Z,50.834782
2023-01-02T02:18:08.175Z,50.834808
2023-01-02T02:19:08.142Z,50.834793
2023-01-02T02:20:08.126Z,50.834778
2023-01-02T02:21:08.137Z,50.834763
2023-01-02T02:22:08.193Z,50.834789
2023-01-02T02:23:08.091Z,50.834766
2023-01-02T02:24:40.095Z,50.834774
2023-01-02T02:25:08.088Z,50.834782
2023-01-02T02:26:08.082Z,50.834797
2023-01-02T02:27:08.075Z,50.834785
2023-01-02T02:28:08.075Z,50.834755
2023-01-02T02:29:08.061Z,50.834797
2023-01-02T02:30:08.082Z,50.834808
2023-01-02T02:31:08.050Z,50.834801
2023-01-02T02:32:08.047Z,50.834789
2023-01-02T02:33:08.032Z,50.834759
2023-01-02T02:34:08.017Z,50.834774
2023-01-02T02:35:08.020Z,50.834805
2023-01-02T02:36:08.004Z,50.834774
2023-01-02T02:37:07.988Z,50.834782
2023-01-02T02:38:07.985Z,50.834785
2023-01-02T02:39:08.035Z,50.834785
2023-01-02T02:40:08.003Z,50.834789
2023-01-02T02:41:07.973Z,50.834782
2023-01-02T02:42:07.943Z,50.834808
2023-01-02T02:43:07.948Z,50.834774
2023-01-02T02:44:07.945Z,50.834797
2023-01-02T02:45:07.969Z,50.834801
2023-01-02T02:46:07.994Z,50.834785
2023-01-02T02:47:07.915Z,50.834805
2023-01-02T02:48:07.940Z,50.834766
2023-01-02T02:49:07.916Z,50.834805
2023-01-02T02:50:07.883Z,50.834785
2023-01-02T02:51:07.907Z,50.834789
2023-01-02T02:52:07.875Z,50.834808
2023-01-02T02:53:07.892Z,50.834839
2023-01-02T02:54:07.860Z,50.834854
2023-01-02T02:55:07.853Z,50.834866
2023-01-02T02:56:07.875Z,50.834862
2023-01-02T02:57:07.857Z,50.834854
2023-01-02T02:58:07.860Z,50.834858
2023-01-02T02:59:07.862Z,50.834824
2023-01-02T03:00:07.828Z,50.834816
2023-01-02T03:01:07.930Z,50.834824
2023-01-02T03:02:07.968Z,50.834827
2023-01-02T03:03:07.937Z,50.834816
2023-01-02T03:04:08.042Z,50.834850
2023-01-02T03:05:07.762Z,50.834808
2023-01-02T03:06:07.779Z,50.834846
2023-01-02T03:07:07.777Z,50.834839
2023-01-02T03:08:07.781Z,50.834816
2023-01-02T03:09:07.745Z,50.834812
2023-01-02T03:10:07.762Z,50.834839
2023-01-02T03:11:07.789Z,50.834835
2023-01-02T03:12:07.815Z,50.834827
2023-01-02T03:13:08.415Z,50.834820
2023-01-02T03:14:07.703Z,50.834820
2023-01-02T03:15:07.709Z,50.834827
2023-01-02T03:16:07.726Z,50.834835
2023-01-02T03:17:07.699Z,50.834831
2023-01-02T03:18:07.679Z,50.834846
2023-01-02T03:19:07.754Z,50.834835
2023-01-02T03:20:07.690Z,50.834812
2023-01-02T03:21:07.724Z,50.834839
2023-01-02T03:22:07.687Z,50.834854
2023-01-02T03:23:07.660Z,50.834839
2023-01-02T03:24:07.653Z,50.834873
2023-01-02T03:25:08.337Z,50.834850
2023-01-02T03:26:07.627Z,50.834839
2023-01-02T03:27:07.632Z,50.834835
2023-01-02T03:28:07.658Z,50.834839
2023-01-02T03:29:07.600Z,50.834835
2023-01-02T03:30:07.599Z,50.834824
2023-01-02T03:31:07.629Z,50.834843
2023-01-02T03:32:07.572Z,50.834816
2023-01-02T03:33:08.485Z,50.834797
2023-01-02T03:34:07.571Z,50.834827
2023-01-02T03:35:07.563Z,50.834850
2023-01-02T03:36:07.557Z,50.834835
2023-01-02T03:37:07.517Z,50.834846
2023-01-02T03:38:07.550Z,50.834835
2023-01-02T03:39:07.512Z,50.834854
2023-01-02T03:40:07.533Z,50.834850
2023-01-02T03:41:07.529Z,50.834820
2023-01-02T03:42:07.497Z,50.834820
2023-01-02T03:43:08.470Z,50.834808
2023-01-02T03:44:07.487Z,50.834812
2023-01-02T03:45:07.530Z,50.834805
2023-01-02T03:46:07.521Z,50.834839
2023-01-02T04:04:30.663Z,50.834801
2023-01-02T04:05:29.716Z,50.834850
2023-01-02T04:06:29.740Z,50.834850
2023-01-02T04:07:29.707Z,50.834846
2023-01-02T04:08:29.681Z,50.834839
2023-01-02T04:09:29.688Z,50.834850
2023-01-02T04:10:29.711Z,50.834862
2023-01-02T04:11:29.882Z,50.834843
2023-01-02T04:12:29.668Z,50.834827
2023-01-02T04:13:29.716Z,50.834850
2023-01-02T04:14:29.643Z,50.834835
2023-01-02T04:15:29.679Z,50.834820
2023-01-02T04:16:29.646Z,50.834824
2023-01-02T04:17:29.627Z,50.834835
2023-01-02T04:18:29.608Z,50.834839
2023-01-02T04:19:29.621Z,50.834846
2023-01-02T04:20:30.296Z,50.834846
2023-01-02T04:21:29.596Z,50.834831
2023-01-02T04:22:29.600Z,50.834824
2023-01-02T04:23:29.574Z,50.834839
2023-01-02T04:24:29.608Z,50.834846
2023-01-02T04:25:29.561Z,50.834827
2023-01-02T04:26:30.554Z,50.834820
2023-01-02T04:27:29.614Z,50.834808
2023-01-02T04:28:29.535Z,50.834835
2023-01-02T04:29:29.528Z,50.834843
2023-01-02T04:30:29.514Z,50.834824
2023-01-02T04:31:29.568Z,50.834827
2023-01-02T04:32:29.517Z,50.834827
2023-01-02T04:33:30.514Z,50.834835
2023-01-02T04:34:29.575Z,50.834835
2023-01-02T04:35:30.325Z,50.834850
2023-01-02T04:36:29.476Z,50.834816
2023-01-02T04:37:29.456Z,50.834824
2023-01-02T04:38:29.461Z,50.834820
2023-01-02T04:39:29.480Z,50.834835
2023-01-02T04:40:30.335Z,50.834862
2023-01-02T04:41:29.494Z,50.834873
2023-01-02T04:42:29.435Z,50.834843
2023-01-02T04:43:29.410Z,50.834816
2023-01-02T04:44:29.422Z,50.834843
2023-01-02T04:45:29.392Z,50.834835
2023-01-02T04:46:30.507Z,50.834831
2023-01-02T04:47:29.372Z,50.834824
2023-01-02T04:48:29.373Z,50.834812
2023-01-02T04:49:29.417Z,50.834812
2023-01-02T04:50:29.387Z,50.834824
2023-01-02T04:51:29.357Z,50.834824
2023-01-02T04:52:35.065Z,50.834839
2023-01-02T04:53:31.337Z,50.834843
2023-01-02T04:54:29.311Z,50.834812
2023-01-02T04:55:29.324Z,50.834835
2023-01-02T04:56:29.347Z,50.834839
2023-01-02T04:57:29.318Z,50.834816
2023-01-02T04:58:29.324Z,50.834827
2023-01-02T04:59:29.312Z,50.834831
2023-01-02T05:00:29.304Z,50.834831
2023-01-02T05:01:29.387Z,50.834835
2023-01-02T05:02:29.369Z,50.834839
2023-01-02T05:03:29.274Z,50.834827
2023-01-02T05:04:29.272Z,50.834831
2023-01-02T05:05:29.241Z,50.834843
2023-01-02T05:06:29.277Z,50.834824
2023-01-02T05:07:29.221Z,50.834824
2023-01-02T05:08:29.233Z,50.834816
2023-01-02T05:09:29.195Z,50.834827
2023-01-02T05:10:29.273Z,50.834824
2023-01-02T05:11:29.200Z,50.834827
2023-01-02T05:12:29.214Z,50.834831
2023-01-02T05:13:29.185Z,50.834827
2023-01-02T05:14:29.169Z,50.834812
2023-01-02T05:15:29.149Z,50.834827
2023-01-02T05:16:29.201Z,50.834824
2023-01-02T05:17:29.131Z,50.834835
2023-01-02T05:18:29.220Z,50.834831
2023-01-02T05:19:29.123Z,50.834843
2023-01-02T05:20:29.256Z,50.834835
2023-01-02T05:21:29.122Z,50.834816
2023-01-02T05:22:29.152Z,50.834820
2023-01-02T05:23:29.116Z,50.834824
2023-01-02T05:24:29.084Z,50.834839
2023-01-02T05:25:29.058Z,50.834846
2023-01-02T05:26:29.091Z,50.834827
2023-01-02T05:27:29.041Z,50.834839
2023-01-02T05:28:32.505Z,50.834824
2023-01-02T05:29:30.058Z,50.834831
2023-01-02T05:30:29.032Z,50.834797
2023-01-02T05:31:29.218Z,50.834858
2023-01-02T05:32:29.027Z,50.834846
2023-01-02T05:33:29.017Z,50.834839
2023-01-02T05:34:29.003Z,50.834839
2023-01-02T05:35:33.026Z,50.834843
2023-01-02T05:36:29.989Z,50.834816
2023-01-02T05:37:28.963Z,50.834854
2023-01-02T05:38:28.985Z,50.834858
2023-01-02T05:39:28.958Z,50.834843
2023-01-02T05:40:29.795Z,50.834801
2023-01-02T05:41:28.948Z,50.834797
2023-01-02T05:42:28.946Z,50.834835
2023-01-02T05:43:28.946Z,50.834805
2023-01-02T05:44:28.941Z,50.834827
2023-01-02T05:45:28.927Z,50.834816
2023-01-02T05:46:28.996Z,50.834816
2023-01-02T05:48:00.836Z,50.834816
2023-01-02T05:48:28.923Z,50.834831
2023-01-02T05:49:28.918Z,50.834820
2023-01-02T05:50:28.874Z,50.834843
2023-01-02T05:51:28.901Z,50.834820
2023-01-02T05:52:28.874Z,50.834820
2023-01-02T05:53:28.858Z,50.834805
2023-01-02T05:54:28.948Z,50.834824
2023-01-02T05:55:28.846Z,50.834816
2023-01-02T05:56:28.850Z,50.834839
2023-01-02T05:57:28.835Z,50.834835
2023-01-02T05:58:28.810Z,50.834850
2023-01-02T05:59:28.826Z,50.834839
2023-01-02T06:00:28.793Z,50.834827
2023-01-02T06:01:28.814Z,50.834808
2023-01-02T06:02:28.949Z,50.834843
2023-01-02T06:03:28.887Z,50.834797
2023-01-02T06:04:28.755Z,50.834801
2023-01-02T06:05:28.793Z,50.834805
2023-01-02T06:06:28.751Z,50.834801
2023-01-02T06:07:28.741Z,50.834797
2023-01-02T06:08:28.746Z,50.834805
2023-01-02T06:09:28.734Z,50.834793
2023-01-02T06:10:28.753Z,50.834770
2023-01-02T06:11:28.712Z,50.834816
2023-01-02T06:12:28.743Z,50.834789
2023-01-02T06:13:28.716Z,50.834782
2023-01-02T06:14:28.711Z,50.834797
2023-01-02T06:15:28.690Z,50.834763
2023-01-02T06:17:00.600Z,50.834816
2023-01-02T06:17:28.678Z,50.834805
2023-01-02T06:18:28.683Z,50.834808
2023-01-02T06:19:28.690Z,50.834820
2023-01-02T06:20:28.677Z,50.834854
2023-01-02T06:21:28.638Z,50.834820
2023-01-02T06:22:28.661Z,50.834785
2023-01-02T06:23:28.618Z,50.834805
2023-01-02T06:24:28.623Z,50.834801
2023-01-02T06:25:28.619Z,50.834778
2023-01-02T06:26:34.329Z,50.834785
2023-01-02T06:27:55.503Z,50.834789
2023-01-02T06:28:28.603Z,50.834785
2023-01-02T06:29:28.602Z,50.834805
2023-01-02T06:30:28.565Z,50.834793
2023-01-02T06:31:28.594Z,50.834785
2023-01-02T06:32:28.605Z,50.834778
2023-01-02T06:33:28.553Z,50.834785
2023-01-02T06:34:28.553Z,50.834774
2023-01-02T06:35:28.523Z,50.834770
2023-01-02T06:36:28.519Z,50.834782
2023-01-02T06:37:28.542Z,50.834778
2023-01-02T06:38:28.534Z,50.834774
2023-01-02T06:39:28.520Z,50.834785
2023-01-02T06:40:28.491Z,50.834766
2023-01-02T06:41:28.495Z,50.834759
2023-01-02T06:42:29.478Z,50.834785
2023-01-02T06:43:28.461Z,50.834793
2023-01-02T06:44:28.447Z,50.834808
2023-01-02T06:45:28.473Z,50.834805
2023-01-02T06:46:28.464Z,50.834789
2023-01-02T06:47:28.465Z,50.834793
2023-01-02T06:48:28.432Z,50.834770
2023-01-02T06:49:28.423Z,50.834801
2023-01-02T06:50:34.685Z,50.834793
2023-01-02T06:51:30.401Z,50.834797
2023-01-02T06:52:28.416Z,50.834808
2023-01-02T06:53:28.409Z,50.834805
2023-01-02T06:54:28.390Z,50.834801
2023-01-02T06:55:28.355Z,50.834789
2023-01-02T06:57:00.300Z,50.834797
2023-01-02T06:57:28.364Z,50.834785
2023-01-02T06:58:28.431Z,50.834793
2023-01-02T06:59:28.340Z,50.834801
2023-01-02T07:00:28.333Z,50.834797
2023-01-02T07:01:28.406Z,50.834778
2023-01-02T07:02:28.365Z,50.834778
2023-01-02T07:03:28.301Z,50.834774
2023-01-02T07:04:29.325Z,50.834778
2023-01-02T07:05:28.328Z,50.834785
2023-01-02T07:06:28.295Z,50.834793
2023-01-02T07:07:28.312Z,50.834782
2023-01-02T07:08:28.273Z,50.834785
2023-01-02T07:09:28.262Z,50.834770
2023-01-02T07:10:28.286Z,50.834782
2023-01-02T07:11:28.266Z,50.834785
2023-01-02T07:12:28.253Z,50.834789
2023-01-02T07:13:28.234Z,50.834782
2023-01-02T07:14:28.256Z,50.834782
2023-01-02T07:15:28.217Z,50.834770
2023-01-02T07:16:28.229Z,50.834782
2023-01-02T07:17:28.214Z,50.834766
2023-01-02T07:18:28.226Z,50.834774
2023-01-02T07:19:28.201Z,50.834785
2023-01-02T07:20:28.171Z,50.834770
2023-01-02T07:21:28.160Z,50.834778
2023-01-02T07:22:28.159Z,50.834793
2023-01-02T07:23:28.148Z,50.834778
2023-01-02T07:24:28.159Z,50.834797
2023-01-02T07:25:28.147Z,50.834785
2023-01-02T07:26:28.117Z,50.834797
2023-01-02T07:27:28.133Z,50.834785
2023-01-02T07:28:28.136Z,50.834812
2023-01-02T07:29:28.131Z,50.834808
2023-01-02T07:30:28.113Z,50.834789
2023-01-02T07:31:28.162Z,50.834797
2023-01-02T07:32:28.094Z,50.834793
2023-01-02T07:33:28.076Z,50.834805
2023-01-02T07:34:28.070Z,50.834801
2023-01-02T07:35:28.133Z,50.834824
2023-01-02T07:36:28.045Z,50.834820
2023-01-02T07:37:28.043Z,50.834808
2023-01-02T07:38:28.024Z,50.834797
2023-01-02T07:39:28.018Z,50.834808
2023-01-02T07:40:32.110Z,50.834843
2023-01-02T07:41:29.035Z,50.834824
2023-01-02T07:42:27.989Z,50.834839
2023-01-02T07:43:27.993Z,50.834827
2023-01-02T07:44:27.987Z,50.834843
2023-01-02T07:45:28.075Z,50.834816
2023-01-02T07:46:28.211Z,50.834801
2023-01-02T07:47:27.950Z,50.834778
2023-01-02T07:48:28.520Z,50.834793
2023-01-02T07:49:27.960Z,50.834805
2023-01-02T07:50:27.956Z,50.834808
2023-01-02T07:51:28.931Z,50.834827
2023-01-02T07:52:27.918Z,50.834839
2023-01-02T07:53:27.898Z,50.834839
2023-01-02T07:54:27.916Z,50.834808
2023-01-02T07:55:27.919Z,50.834797
2023-01-02T07:56:27.899Z,50.834812
2023-01-02T07:57:27.870Z,50.834785
2023-01-02T07:58:27.865Z,50.834774
2023-01-02T07:59:27.892Z,50.834808
2023-01-02T08:00:27.954Z,50.834824
2023-01-02T08:01:27.960Z,50.834808
2023-01-02T08:02:27.968Z,50.834797
2023-01-02T08:03:27.860Z,50.834805
2023-01-02T08:04:27.876Z,50.834793
2023-01-02T08:05:27.853Z,50.834801
2023-01-02T08:06:27.805Z,50.834820
2023-01-02T08:07:27.808Z,50.834801
2023-01-02T08:08:27.805Z,50.834816
2023-01-02T08:09:27.794Z,50.834789
2023-01-02T08:10:27.826Z,50.834793
2023-01-02T08:11:27.786Z,50.834824
2023-01-02T08:12:27.786Z,50.834797
2023-01-02T08:13:27.772Z,50.834824
2023-01-02T08:14:27.750Z,50.834805
2023-01-02T08:15:59.672Z,50.834801
2023-01-02T08:16:27.774Z,50.834812
2023-01-02T08:17:27.732Z,50.834759
2023-01-02T08:18:30.144Z,50.834747
2023-01-02T08:19:27.734Z,50.834656
2023-01-02T08:20:27.728Z,50.834747
2023-01-02T08:21:27.724Z,50.834785
2023-01-02T08:22:27.702Z,50.834797
2023-01-02T08:23:27.684Z,50.834743
2023-01-02T08:24:27.664Z,50.834751
2023-01-02T08:25:27.648Z,50.834801
2023-01-02T08:26:27.667Z,50.834812
2023-01-02T08:27:27.676Z,50.834812
2023-01-02T08:28:27.630Z,50.834805
2023-01-02T08:29:27.753Z,50.834808
2023-01-02T08:30:27.620Z,50.834808
2023-01-02T08:31:27.697Z,50.834816
2023-01-02T08:32:27.603Z,50.834801
2023-01-02T08:33:27.604Z,50.834797
2023-01-02T08:34:27.601Z,50.834812
2023-01-02T08:35:38.113Z,50.834820
2023-01-02T08:36:29.579Z,50.834782
2023-01-02T08:37:27.595Z,50.834778
2023-01-02T08:38:28.523Z,50.834820
2023-01-02T08:39:27.564Z,50.834827
2023-01-02T08:40:28.525Z,50.834805
2023-01-02T08:41:27.565Z,50.834801
2023-01-02T08:42:28.086Z,50.834797
2023-01-02T08:43:27.531Z,50.834766
2023-01-02T08:44:28.067Z,50.834816
2023-01-02T08:45:27.499Z,50.834751
2023-01-02T08:46:27.561Z,50.834801
2023-01-02T08:47:27.523Z,50.834820
2023-01-02T08:48:27.478Z,50.834827
2023-01-02T08:49:27.475Z,50.834850
2023-01-02T08:50:27.458Z,50.834831
2023-01-02T08:51:27.493Z,50.834827
2023-01-02T08:52:27.488Z,50.834846
2023-01-02T08:53:27.496Z,50.834839
2023-01-02T08:54:27.514Z,50.834854
2023-01-02T08:55:27.417Z,50.834850
2023-01-02T08:56:27.421Z,50.834846
2023-01-02T08:57:27.399Z,50.834843
2023-01-02T08:58:28.046Z,50.834835
2023-01-02T08:59:28.393Z,50.834843
2023-01-02T09:00:27.376Z,50.834835
2023-01-02T09:01:28.121Z,50.834846
2023-01-02T09:02:27.513Z,50.834835
2023-01-02T09:03:27.429Z,50.834816
2023-01-02T09:04:27.368Z,50.834846
2023-01-02T09:05:27.349Z,50.834839
2023-01-02T09:06:27.444Z,50.834843
2023-01-02T09:07:27.360Z,50.834858
2023-01-02T09:08:27.334Z,50.834850
2023-01-02T09:09:27.328Z,50.834908
2023-01-02T09:10:27.297Z,50.834866
2023-01-02T09:11:27.313Z,50.834850
2023-01-02T09:12:27.323Z,50.834873
2023-01-02T09:13:27.301Z,50.834888
2023-01-02T09:14:27.303Z,50.834885
2023-01-02T09:15:27.382Z,50.834877
2023-01-02T09:16:27.273Z,50.834927
2023-01-02T09:17:27.245Z,50.834915
2023-01-02T09:18:29.503Z,50.834904
2023-01-02T09:19:28.283Z,50.834881
2023-01-02T09:20:27.224Z,50.834881
2023-01-02T09:21:27.234Z,50.834873
2023-01-02T09:22:27.223Z,50.834869
2023-01-02T09:23:27.203Z,50.834850
2023-01-02T09:24:27.219Z,50.834862
2023-01-02T09:25:27.179Z,50.834854
2023-01-02T09:26:27.198Z,50.834866
2023-01-02T09:27:28.191Z,50.834877
2023-01-02T09:28:27.162Z,50.834846
2023-01-02T09:29:27.203Z,50.834858
2023-01-02T09:30:27.152Z,50.834866
2023-01-02T09:31:27.209Z,50.834846
2023-01-02T09:32:27.172Z,50.834862
2023-01-02T09:33:27.152Z,50.834850
2023-01-02T09:34:27.170Z,50.834854
2023-01-02T09:35:27.114Z,50.834862
2023-01-02T09:36:27.101Z,50.834850
2023-01-02T09:37:27.087Z,50.834869
2023-01-02T09:38:27.078Z,50.834869
2023-01-02T09:39:32.152Z,50.834854
2023-01-02T09:40:29.089Z,50.834862
2023-01-02T09:41:27.114Z,50.834854
2023-01-02T09:42:27.077Z,50.834873
2023-01-02T09:43:27.109Z,50.834881
2023-01-02T09:44:27.089Z,50.834866
2023-01-02T09:45:27.129Z,50.834850
2023-01-02T09:46:27.071Z,50.834858
2023-01-02T09:47:27.037Z,50.834862
2023-01-02T09:48:27.018Z,50.834835
2023-01-02T09:49:27.008Z,50.834873
2023-01-02T09:50:27.029Z,50.834888
2023-01-02T09:51:26.993Z,50.834873
2023-01-02T09:52:27.026Z,50.834873
2023-01-02T09:53:26.962Z,50.834854
2023-01-02T09:54:27.053Z,50.834854
2023-01-02T09:55:26.968Z,50.834843
2023-01-02T09:56:31.940Z,50.834877
2023-01-02T09:57:28.928Z,50.834885
2023-01-02T09:58:26.952Z,50.834877
2023-01-02T09:59:26.920Z,50.834885
2023-01-02T10:00:26.939Z,50.834873
2023-01-02T10:01:58.828Z,50.834862
2023-01-02T10:02:26.964Z,50.834881
2023-01-02T10:03:27.010Z,50.834873
2023-01-02T10:04:58.800Z,50.834885
2023-01-02T10:05:26.897Z,50.834900
2023-01-02T10:06:26.871Z,50.834858
2023-01-02T10:07:26.863Z,50.834896
2023-01-02T10:08:31.870Z,50.834877
2023-01-02T10:09:53.785Z,50.834873
2023-01-02T10:10:26.919Z,50.834881
2023-01-02T10:11:27.468Z,50.834877
2023-01-02T10:12:26.854Z,50.834881
2023-01-02T10:13:44.211Z,50.834862
2023-01-02T10:14:35.025Z,50.834877
2023-01-02T10:15:28.775Z,50.834862
2023-01-02T10:16:27.826Z,50.834858
2023-01-02T10:17:26.835Z,50.834866
2023-01-02T10:18:26.811Z,50.834839
2023-01-02T10:19:26.834Z,50.834854
2023-01-02T10:20:26.792Z,50.834850
2023-01-02T10:21:26.759Z,50.834877
2023-01-02T10:22:26.743Z,50.834866
2023-01-02T10:23:26.726Z,50.834862
2023-01-02T10:24:27.472Z,50.834850
2023-01-02T10:25:26.909Z,50.834858
2023-01-02T10:26:26.697Z,50.834854
2023-01-02T10:27:26.771Z,50.834831
2023-01-02T10:28:26.695Z,50.834843
2023-01-02T10:29:26.688Z,50.834835
2023-01-02T10:30:26.687Z,50.834850
2023-01-02T10:31:26.725Z,50.834869
2023-01-02T10:32:26.738Z,50.834850
2023-01-02T10:33:26.648Z,50.834850
2023-01-02T10:34:26.644Z,50.834850
2023-01-02T10:35:26.653Z,50.834835
2023-01-02T10:36:26.664Z,50.834854
2023-01-02T10:37:26.702Z,50.834827
2023-01-02T10:38:26.661Z,50.834843
2023-01-02T10:39:26.607Z,50.834812
2023-01-02T10:40:26.627Z,50.834831
2023-01-02T10:41:26.609Z,50.834827
2023-01-02T10:42:26.552Z,50.834854
2023-01-02T10:43:26.590Z,50.834827
2023-01-02T10:44:26.569Z,50.834827
2023-01-02T10:45:26.580Z,50.834824
2023-01-02T10:46:26.592Z,50.834824
2023-01-02T10:47:26.561Z,50.834820
2023-01-02T10:48:26.559Z,50.834827
2023-01-02T10:49:26.563Z,50.834820
2023-01-02T10:50:26.560Z,50.834816
2023-01-02T10:51:26.541Z,50.834824
2023-01-02T10:52:27.187Z,50.834820
2023-01-02T10:53:27.057Z,50.834850
2023-01-02T10:54:26.505Z,50.834808
2023-01-02T10:55:26.492Z,50.834824
2023-01-02T10:56:27.483Z,50.834839
2023-01-02T10:57:26.473Z,50.834839
2023-01-02T10:58:26.565Z,50.834824
2023-01-02T10:59:26.448Z,50.834812
2023-01-02T11:00:28.360Z,50.834816
2023-01-02T11:01:27.582Z,50.834816
2023-01-02T11:02:26.494Z,50.834812
2023-01-02T11:03:26.416Z,50.834827
2023-01-02T11:04:26.457Z,50.834831
2023-01-02T11:05:26.430Z,50.834816
2023-01-02T11:06:28.203Z,50.834812
2023-01-02T11:07:27.400Z,50.834801
2023-01-02T11:08:26.388Z,50.834820
2023-01-02T11:09:26.385Z,50.834827
2023-01-02T11:10:26.375Z,50.834824
2023-01-02T11:11:27.147Z,50.834808
2023-01-02T11:12:27.760Z,50.834816
2023-01-02T11:13:27.652Z,50.834824
2023-01-02T11:14:26.334Z,50.834827
2023-01-02T11:15:26.335Z,50.834831
2023-01-02T11:16:26.342Z,50.834835
2023-01-02T11:17:26.329Z,50.834831
2023-01-02T11:18:26.307Z,50.834808
2023-01-02T11:19:29.820Z,50.834808
2023-01-02T11:20:27.281Z,50.834801
2023-01-02T11:21:26.276Z,50.834808
2023-01-02T11:22:26.294Z,50.834805
2023-01-02T11:23:26.256Z,50.834812
2023-01-02T11:24:26.325Z,50.834827
2023-01-02T11:25:26.258Z,50.834827
2023-01-02T11:26:26.235Z,50.834801
2023-01-02T11:27:26.222Z,50.834801
2023-01-02T11:28:26.220Z,50.834797
2023-01-02T11:29:26.361Z,50.834801
2023-01-02T11:30:26.270Z,50.834805
2023-01-02T11:31:26.352Z,50.834812
2023-01-02T11:32:26.302Z,50.834812
2023-01-02T11:33:26.197Z,50.834801
2023-01-02T11:34:26.171Z,50.834816
2023-01-02T11:35:26.181Z,50.834801
2023-01-02T11:36:26.165Z,50.834812
2023-01-02T11:37:26.187Z,50.834805
2023-01-02T11:38:29.827Z,50.834805
2023-01-02T11:39:26.159Z,50.834801
2023-01-02T11:40:27.131Z,50.834801
2023-01-02T11:41:26.129Z,50.834793